Latest Weather Observations for Kurnell

IDN60801

Issued at 10:32 am EST Monday 25 September 2017 (issued every 30 minutes, with the page automatically refreshed every 10 minutes)

About weather observations | Map of weather stations | Latest weather observations for NSW | Other Formats
Station Details ID: 066043 Name: KURNELL AWS Lat: -34.00 Lon: 151.21 Height: 4.0 m
Data from the previous 72 hours. | See also: Recent months for locations in New South Wales
Date/Time
EST
Temp
°C
App
Temp
°C
Dew
Point
°C
Rel
Hum
%
Delta-T
°C
Wind Press
QNH
hPa
Press
MSL
hPa
Rain since
9am
mm
Dir  Spd
km/h
Gust
km/h
Spd
kts
Gust
kts
25/10:30am - - - - - WNW 32 43 17 23 - - -
25/10:13am - - - - - WNW 32 44 17 24 - - -
25/10:00am - - - - - WNW 19 26 10 14 - - -
25/09:30am - - - - - WNW 22 26 12 14 - - -
25/09:00am - - - - - W 22 28 12 15 - - -
25/08:30am - - - - - NW 13 17 7 9 - - -
25/08:00am - - - - - NW 9 11 5 6 - - -
25/07:30am - - - - - W 13 17 7 9 - - -
25/07:00am - - - - - SW 17 20 9 11 - - -
25/06:30am - - - - - SW 15 24 8 13 - - -
25/06:00am - - - - - WSW 13 15 7 8 - - -
25/05:30am - - - - - W 9 13 5 7 - - -
25/05:00am - - - - - WSW 6 9 3 5 - - -
25/04:30am - - - - - SSW 7 9 4 5 - - -
25/04:00am - - - - - SW 7 9 4 5 - - -
25/03:30am - - - - - CALM 0 0 0 0 - - -
25/03:00am - - - - - WSW 7 11 4 6 - - -
25/02:30am - - - - - WNW 9 11 5 6 - - -
25/02:00am - - - - - NNW 7 9 4 5 - - -
25/01:30am - - - - - WSW 2 7 1 4 - - -
25/01:00am - - - - - WSW 2 7 1 4 - - -
25/12:30am - - - - - WNW 2 7 1 4 - - -
25/12:00am - - - - - WNW 11 19 6 10 - - -
 
Date/Time
EST
Temp
°C
App
Temp
°C
Dew
Point
°C
Rel
Hum
%
Delta-T
°C
Wind Press
QNH
hPa
Press
MSL
hPa
Rain since
9am
mm
Dir  Spd
km/h
Gust
km/h
Spd
kts
Gust
kts
24/11:30pm - - - - - NW 4 9 2 5 - - -
24/11:00pm - - - - - N 13 17 7 9 - - -
24/10:30pm - - - - - NNW 13 19 7 10 - - -
24/10:00pm - - - - - NNW 11 15 6 8 - - -
24/09:30pm - - - - - NW 11 15 6 8 - - -
24/09:00pm - - - - - WNW 13 15 7 8 - - -
24/08:30pm - - - - - W 17 19 9 10 - - -
24/08:00pm - - - - - W 24 26 13 14 - - -
24/07:30pm - - - - - WNW 24 26 13 14 - - -
24/07:00pm - - - - - W 28 35 15 19 - - -
24/06:30pm - - - - - WNW 30 33 16 18 - - -
24/06:00pm - - - - - WNW 32 37 17 20 - - -
24/05:30pm - - - - - WNW 33 39 18 21 - - -
24/05:00pm - - - - - WNW 35 41 19 22 - - -
24/04:34pm - - - - - WNW 37 56 20 30 - - -
24/04:30pm - - - - - WNW 37 50 20 27 - - -
24/04:00pm - - - - - WNW 37 52 20 28 - - -
24/03:30pm - - - - - WNW 44 61 24 33 - - -
24/03:17pm - - - - - WNW 52 70 28 38 - - -
24/03:00pm - - - - - WNW 48 59 26 32 - - -
24/02:41pm - - - - - WNW 35 54 19 29 - - -
24/02:30pm - - - - - WNW 32 37 17 20 - - -
24/02:00pm - - - - - W 33 44 18 24 - - -
24/01:56pm - - - - - W 30 44 16 24 - - -
24/01:30pm - - - - - W 20 26 11 14 - - -
24/01:00pm - - - - - WNW 20 28 11 15 - - -
24/12:30pm - - - - - WNW 32 39 17 21 - - -
24/12:00pm - - - - - WNW 39 54 21 29 - - -
24/11:30am - - - - - WNW 32 35 17 19 - - -
24/11:00am - - - - - WNW 35 43 19 23 - - -
24/10:30am - - - - - W 32 37 17 20 - - -
24/10:00am - - - - - W 39 48 21 26 - - -
24/09:30am - - - - - W 32 41 17 22 - - -
24/09:00am - - - - - W 20 26 11 14 - - -
24/08:30am - - - - - W 15 22 8 12 - - -
24/08:00am - - - - - SW 13 19 7 10 - - -
24/07:30am - - - - - SSW 17 22 9 12 - - -
24/07:00am - - - - - S 19 28 10 15 - - -
24/06:30am - - - - - SW 20 32 11 17 - - -
24/06:00am - - - - - NW 33 37 18 20 - - -
24/05:30am - - - - - WNW 43 54 23 29 - - -
24/05:00am - - - - - NW 32 48 17 26 - - -
24/04:55am - - - - - NNW 28 43 15 23 - - -
24/04:30am - - - - - NNW 13 17 7 9 - - -
24/04:00am - - - - - NNE 6 11 3 6 - - -
24/03:30am - - - - - NE 11 15 6 8 - - -
24/03:00am - - - - - NE 11 15 6 8 - - -
24/02:30am - - - - - E 11 15 6 8 - - -
24/02:00am - - - - - N 19 24 10 13 - - -
24/01:30am - - - - - NNE 26 30 14 16 - - -
24/01:00am - - - - - NNE 22 28 12 15 - - -
24/12:30am - - - - - NNE 17 19 9 10 - - -
24/12:00am - - - - - NNE 22 30 12 16 - - -
 
Date/Time
EST
Temp
°C
App
Temp
°C
Dew
Point
°C
Rel
Hum
%
Delta-T
°C
Wind Press
QNH
hPa
Press
MSL
hPa
Rain since
9am
mm
Dir  Spd
km/h
Gust
km/h
Spd
kts
Gust
kts
23/11:30pm - - - - - NW 9 26 5 14 - - -
23/11:00pm - - - - - ENE 17 22 9 12 - - -
23/10:30pm - - - - - SSE 13 17 7 9 - - -
23/10:00pm - - - - - NE 17 22 9 12 - - -
23/09:30pm - - - - - NE 22 26 12 14 - - -
23/09:00pm - - - - - NE 28 30 15 16 - - -
23/08:30pm - - - - - NE 30 33 16 18 - - -
23/08:00pm - - - - - NE 28 30 15 16 - - -
23/07:30pm - - - - - NE 20 22 11 12 - - -
23/07:00pm - - - - - NE 24 26 13 14 - - -
23/06:30pm - - - - - NE 26 28 14 15 - - -
23/06:00pm - - - - - NE 32 33 17 18 - - -
23/05:30pm - - - - - NE 39 46 21 25 - - -
23/05:00pm - - - - - NE 41 50 22 27 - - -
23/04:30pm - - - - - NNE 44 54 24 29 - - -
23/04:00pm - - - - - NE 41 48 22 26 - - -
23/03:30pm - - - - - NE 41 46 22 25 - - -
23/03:00pm - - - - - NE 39 46 21 25 - - -
23/02:30pm - - - - - NE 39 43 21 23 - - -
23/02:00pm - - - - - NE 32 35 17 19 - - -
23/01:30pm - - - - - NNE 32 37 17 20 - - -
23/01:00pm - - - - - NNE 24 32 13 17 - - -
23/12:30pm - - - - - N 22 28 12 15 - - -
23/12:00pm - - - - - N 17 24 9 13 - - -
23/11:30am - - - - - N 17 26 9 14 - - -
23/11:00am - - - - - N 20 28 11 15 - - -
23/10:30am - - - - - N 20 28 11 15 - - -
23/10:00am - - - - - N 22 26 12 14 - - -
23/09:30am - - - - - N 17 22 9 12 - - -
23/09:00am - - - - - NNW 13 15 7 8 - - -
23/08:30am - - - - - NNW 15 20 8 11 - - -
23/08:00am - - - - - NW 13 17 7 9 - - -
23/07:30am - - - - - NNW 11 15 6 8 - - -
23/07:00am - - - - - NNW 11 15 6 8 - - -
23/06:30am - - - - - NNW 9 13 5 7 - - -
23/06:00am - - - - - NNW 11 15 6 8 - - -
23/05:30am - - - - - N 9 13 5 7 - - -
23/05:00am - - - - - N 11 15 6 8 - - -
23/04:30am - - - - - NNW 11 15 6 8 - - -
23/04:00am - - - - - N 9 13 5 7 - - -
23/03:30am - - - - - N 13 17 7 9 - - -
23/03:00am - - - - - N 13 17 7 9 - - -
23/02:30am - - - - - N 13 17 7 9 - - -
23/02:00am - - - - - N 11 13 6 7 - - -
23/01:30am - - - - - N 11 13 6 7 - - -
23/01:00am - - - - - NNW 7 11 4 6 - - -
23/12:30am - - - - - NNW 11 15 6 8 - - -
23/12:00am - - - - - NNW 13 15 7 8 - - -
 
Date/Time
EST
Temp
°C
App
Temp
°C
Dew
Point
°C
Rel
Hum
%
Delta-T
°C
Wind Press
QNH
hPa
Press
MSL
hPa
Rain since
9am
mm
Dir  Spd
km/h
Gust
km/h
Spd
kts
Gust
kts
22/11:30pm - - - - - NNE 7 11 4 6 - - -
22/11:00pm - - - - - NE 13 13 7 7 - - -
22/10:30pm - - - - - NNE 11 15 6 8 - - -
22/10:00pm - - - - - WNW 15 20 8 11 - - -
22/09:30pm - - - - - N 20 26 11 14 - - -
22/09:00pm - - - - - NNE 33 39 18 21 - - -
22/08:30pm - - - - - NE 32 43 17 23 - - -
22/08:00pm - - - - - NE 33 41 18 22 - - -
22/07:30pm - - - - - NE 35 43 19 23 - - -
22/07:00pm - - - - - NE 33 37 18 20 - - -
22/06:30pm - - - - - NE 32 37 17 20 - - -
22/06:00pm - - - - - NE 28 33 15 18 - - -
22/05:30pm - - - - - NE 19 26 10 14 - - -
22/05:00pm - - - - - NE 20 26 11 14 - - -
22/04:30pm - - - - - NE 24 26 13 14 - - -
22/04:00pm - - - - - NE 28 32 15 17 - - -
22/03:30pm - - - - - NE 26 30 14 16 - - -
22/03:00pm - - - - - NE 20 24 11 13 - - -
22/02:30pm - - - - - NE 24 28 13 15 - - -
22/02:00pm - - - - - ENE 19 22 10 12 - - -
22/01:30pm - - - - - ENE 15 17 8 9 - - -
22/01:00pm - - - - - ENE 15 19 8 10 - - -
22/12:30pm - - - - - ENE 15 17 8 9 - - -
22/12:00pm - - - - - N 2 9 1 5 - - -
22/11:30am - - - - - WNW 9 9 5 5 - - -
22/11:00am - - - - - NW 9 13 5 7 - - -

Other Formats:

Comma delimited format used in spreadsheet applications
http://www.bom.gov.au/fwo/IDN60801/IDN60801.95756.axf

JavaScript Object Notation format (JSON) in row-major order
http://www.bom.gov.au/fwo/IDN60801/IDN60801.95756.json